Time;durP1;ratioP1;P1;durP2;ratioP2;P2;SDS_P1;SDS_P2;PMS_P1;PMS_P2;Temp;Humidity;BMP_temperature;BMP_pressure;BME280_temperature;BME280_humidity;BME280_pressure;Samples;Min_cycle;Max_cycle;Signal;HPM_P1;HPM_P2
2022/11/08 00:01:33;;;;;;;2.28;1.60;;;10.30;99.90;;;;;;5032982;28;20064;-74
2022/11/08 00:04:01;;;;;;;2.42;1.73;;;10.30;99.90;;;;;;5032788;28;20037;-74
2022/11/08 00:14:41;;;;;;;2.45;1.70;;;10.20;99.90;;;;;;5032993;28;20541;-75
2022/11/08 00:17:07;;;;;;;2.63;1.38;;;10.20;99.90;;;;;;5032536;28;20072;-74
2022/11/08 00:19:33;;;;;;;2.08;1.88;;;10.20;99.90;;;;;;5032298;28;20029;-74
2022/11/08 00:21:59;;;;;;;2.30;1.80;;;10.20;99.90;;;;;;5032432;28;20431;-74
2022/11/08 00:24:24;;;;;;;1.40;1.30;;;10.20;99.90;;;;;;5032330;28;20490;-74
2022/11/08 00:26:50;;;;;;;1.60;1.33;;;10.20;99.90;;;;;;5014479;28;20038;-74
2022/11/08 00:29:16;;;;;;;2.03;1.67;;;10.20;99.90;;;;;;5033700;28;20025;-74
2022/11/08 00:31:42;;;;;;;1.80;1.38;;;10.20;99.90;;;;;;5033791;28;20119;-74
2022/11/08 00:34:08;;;;;;;2.25;1.40;;;10.20;99.90;;;;;;5049270;28;20131;-74
2022/11/08 00:36:34;;;;;;;1.88;1.23;;;10.20;99.90;;;;;;5034159;28;20471;-75
2022/11/08 00:39:00;;;;;;;1.60;1.48;;;10.20;99.90;;;;;;5033773;28;20072;-74
2022/11/08 00:41:25;;;;;;;1.30;1.20;;;10.20;99.90;;;;;;5051533;28;20033;-74
2022/11/08 00:43:51;;;;;;;1.70;1.58;;;10.20;99.90;;;;;;5033972;28;20036;-74
2022/11/08 00:46:17;;;;;;;1.50;1.38;;;10.30;99.90;;;;;;4998047;28;20050;-74
2022/11/08 00:48:42;;;;;;;1.90;1.75;;;10.30;99.90;;;;;;5013886;28;20022;-74
2022/11/08 00:51:13;;;;;;;2.10;1.70;;;10.30;99.90;;;;;;5013910;28;20105;-74
2022/11/08 00:53:39;;;;;;;2.05;1.50;;;10.20;99.90;;;;;;4995887;28;20396;-74
2022/11/08 00:56:07;;;;;;;1.50;1.30;;;10.20;99.90;;;;;;5001649;28;20033;-74
2022/11/08 00:58:33;;;;;;;1.83;1.38;;;10.30;99.90;;;;;;5033477;28;20032;-74
2022/11/08 01:00:59;;;;;;;2.40;1.60;;;10.30;99.90;;;;;;5015670;28;20026;-74
2022/11/08 01:03:25;;;;;;;1.60;1.40;;;10.40;99.90;;;;;;5033325;28;20080;-74
2022/11/08 01:05:53;;;;;;;1.48;1.38;;;10.40;99.90;;;;;;5033539;28;20525;-74
2022/11/08 01:08:20;;;;;;;2.90;1.70;;;10.40;99.90;;;;;;5015721;28;20104;-74
2022/11/08 01:10:49;;;;;;;2.70;1.45;;;10.40;99.90;;;;;;5033368;28;20061;-74
2022/11/08 01:13:16;;;;;;;1.55;1.30;;;10.40;99.90;;;;;;5033126;28;20056;-74
2022/11/08 01:15:43;;;;;;;1.90;1.70;;;10.40;99.90;;;;;;5033057;28;20480;-74
2022/11/08 01:18:11;;;;;;;1.40;1.30;;;10.40;99.90;;;;;;5033151;28;20024;-74
2022/11/08 01:20:38;;;;;;;1.83;1.48;;;10.30;99.90;;;;;;5015471;28;20075;-74
2022/11/08 01:23:04;;;;;;;2.00;1.80;;;10.30;99.90;;;;;;5015126;28;20021;-74
2022/11/08 01:25:30;;;;;;;1.58;1.30;;;10.40;99.90;;;;;;5028592;28;20037;-74
2022/11/08 01:27:58;;;;;;;1.70;1.48;;;10.40;99.90;;;;;;5028450;28;20468;-74
2022/11/08 01:30:24;;;;;;;1.50;1.40;;;10.40;99.90;;;;;;5013191;28;20025;-75
2022/11/08 01:32:49;;;;;;;1.92;1.60;;;10.40;99.90;;;;;;5012952;28;20159;-74
2022/11/08 01:35:15;;;;;;;1.55;1.45;;;10.40;99.90;;;;;;5013185;28;20057;-74
2022/11/08 01:37:44;;;;;;;1.40;1.27;;;10.40;99.90;;;;;;5028158;28;20025;-74
2022/11/08 01:40:10;;;;;;;1.85;1.30;;;10.50;99.90;;;;;;5012855;28;20018;-74
2022/11/08 01:42:36;;;;;;;1.63;1.52;;;10.40;99.90;;;;;;5012881;28;20040;-74
2022/11/08 01:45:08;;;;;;;1.63;1.42;;;10.50;99.90;;;;;;5002491;28;20053;-74
2022/11/08 01:47:33;;;;;;;;;;;10.50;99.90;;;;;;5033107;28;20025;-74
2022/11/08 01:50:10;;;;;;;1.60;1.40;;;10.50;99.90;;;;;;5032439;28;19973;-74
2022/11/08 01:52:41;;;;;;;2.08;1.98;;;10.50;99.90;;;;;;5032679;28;20021;-74
2022/11/08 01:55:22;;;;;;;1.70;1.52;;;10.40;99.90;;;;;;5032357;28;20455;-74
2022/11/08 01:58:12;;;;;;;3.63;1.55;;;10.40;99.90;;;;;;5032244;28;20033;-75
2022/11/08 02:00:39;;;;;;;1.52;1.42;;;10.40;99.90;;;;;;5032362;28;20029;-75
2022/11/08 02:03:09;;;;;;;1.92;1.75;;;10.30;99.90;;;;;;5032142;28;20160;-74
2022/11/08 02:05:35;;;;;;;1.63;1.50;;;10.30;99.90;;;;;;5031655;28;20026;-74
2022/11/08 02:08:28;;;;;;;1.88;1.58;;;10.30;99.90;;;;;;5032189;28;20499;-74
2022/11/08 02:10:54;;;;;;;1.50;1.40;;;10.40;99.90;;;;;;5047326;28;20029;-74
2022/11/08 02:13:28;;;;;;;1.42;1.33;;;10.40;99.90;;;;;;5014291;28;20032;-74
2022/11/08 02:15:54;;;;;;;1.42;1.33;;;10.40;99.90;;;;;;5031980;28;20578;-75
2022/11/08 02:18:23;;;;;;;1.60;1.23;;;10.40;99.90;;;;;;5032147;28;20116;-74
2022/11/08 02:21:12;;;;;;;2.35;1.33;;;10.30;99.90;;;;;;5032039;28;20108;-74
2022/11/08 02:23:53;;;;;;;2.95;1.42;;;10.30;99.90;;;;;;5032056;28;20086;-74
2022/11/08 02:26:23;;;;;;;1.63;1.53;;;10.30;99.90;;;;;;5031766;28;20010;-74
2022/11/08 02:28:49;;;;;;;1.63;1.52;;;10.30;99.90;;;;;;5031902;28;20116;-74
2022/11/08 02:31:17;;;;;;;1.55;1.27;;;10.20;99.90;;;;;;5016106;28;20033;-74
2022/11/08 02:33:43;;;;;;;2.28;1.70;;;10.20;99.90;;;;;;5014005;28;20467;-74
2022/11/08 02:36:13;;;;;;;1.55;1.45;;;10.20;99.90;;;;;;5013908;28;20475;-74
2022/11/08 02:38:43;;;;;;;1.67;1.33;;;10.20;99.90;;;;;;5031490;28;20026;-74
2022/11/08 02:41:09;;;;;;;2.75;1.55;;;10.20;99.90;;;;;;5013792;28;20025;-74
2022/11/08 02:43:35;;;;;;;1.75;1.50;;;10.20;99.90;;;;;;5031667;28;20048;-74
2022/11/08 02:46:00;;;;;;;1.35;1.25;;;10.20;99.90;;;;;;5031540;28;20129;-74
2022/11/08 02:48:26;;;;;;;1.60;1.50;;;10.30;99.90;;;;;;5031418;28;20095;-74
2022/11/08 02:50:52;;;;;;;1.33;1.23;;;10.30;99.90;;;;;;5031421;28;20479;-74
2022/11/08 02:53:18;;;;;;;1.67;1.50;;;10.30;99.90;;;;;;5031550;28;20091;-74
2022/11/08 02:55:44;;;;;;;1.27;1.17;;;10.30;99.90;;;;;;5031308;28;20483;-74
2022/11/08 02:58:11;;;;;;;1.70;1.60;;;10.30;99.90;;;;;;5031441;28;20083;-74
2022/11/08 03:00:37;;;;;;;1.40;1.30;;;10.40;99.90;;;;;;5031476;28;20036;-74
2022/11/08 03:03:03;;;;;;;4.85;1.90;;;10.40;99.90;;;;;;5040963;28;20082;-74
2022/11/08 03:05:30;;;;;;;1.60;1.50;;;10.50;99.90;;;;;;5051236;28;20029;-74
2022/11/08 03:07:56;;;;;;;1.75;1.20;;;10.50;99.90;;;;;;5051259;28;20121;-74
2022/11/08 03:10:23;;;;;;;2.58;1.38;;;10.60;99.90;;;;;;5051106;28;20091;-74
2022/11/08 03:13:00;;;;;;;1.45;1.35;;;10.50;99.90;;;;;;5051202;28;20053;-74
2022/11/08 03:15:27;;;;;;;2.85;1.30;;;10.60;99.90;;;;;;5051236;28;20029;-74
2022/11/08 03:17:54;;;;;;;2.03;1.70;;;10.50;99.90;;;;;;5053084;28;20032;-74
2022/11/08 03:20:20;;;;;;;1.80;1.50;;;10.60;99.90;;;;;;5055017;28;20386;-74
2022/11/08 03:22:46;;;;;;;2.22;1.42;;;10.50;99.90;;;;;;5055291;28;20021;-74
2022/11/08 03:25:12;;;;;;;1.55;1.38;;;10.50;99.90;;;;;;5035358;28;20398;-74
2022/11/08 03:27:38;;;;;;;1.88;1.60;;;10.50;99.90;;;;;;5035027;28;20029;-74
2022/11/08 03:30:06;;;;;;;1.60;1.23;;;10.50;99.90;;;;;;5050484;28;20033;-74
2022/11/08 03:32:31;;;;;;;1.08;0.93;;;10.50;99.90;;;;;;5017298;28;20030;-74
2022/11/08 03:34:59;;;;;;;1.50;1.40;;;10.50;99.90;;;;;;5034814;28;20036;-74
2022/11/08 03:37:25;;;;;;;1.38;1.17;;;10.50;99.90;;;;;;5034996;28;20449;-75
2022/11/08 03:39:51;;;;;;;2.30;1.40;;;10.50;99.90;;;;;;5034825;28;20108;-74
2022/11/08 03:42:16;;;;;;;1.35;1.25;;;10.50;99.90;;;;;;5034822;28;20053;-74
2022/11/08 03:44:42;;;;;;;1.85;1.67;;;10.50;99.90;;;;;;5029949;28;20073;-74
2022/11/08 03:47:08;;;;;;;1.63;1.52;;;10.50;99.90;;;;;;4997589;28;20038;-74
2022/11/08 03:49:33;;;;;;;1.20;1.20;;;10.60;99.90;;;;;;5029815;28;20025;-74
2022/11/08 03:51:59;;;;;;;2.05;1.50;;;10.60;99.90;;;;;;5015066;28;20025;-74
2022/11/08 03:54:25;;;;;;;1.45;1.33;;;10.60;99.90;;;;;;5014807;28;20092;-74
2022/11/08 03:56:51;;;;;;;1.30;1.20;;;10.60;99.90;;;;;;5014759;28;20025;-74
2022/11/08 03:59:16;;;;;;;1.85;1.50;;;10.70;99.90;;;;;;5014870;28;20157;-74
2022/11/08 04:01:42;;;;;;;0.85;0.85;;;10.70;99.90;;;;;;5014537;28;20025;-74
2022/11/08 04:04:08;;;;;;;1.45;1.15;;;10.80;99.90;;;;;;5014685;28;20034;-74
2022/11/08 04:06:34;;;;;;;1.40;1.10;;;10.80;99.90;;;;;;4997224;28;20040;-74
2022/11/08 04:09:00;;;;;;;4.30;1.20;;;10.80;99.90;;;;;;4996967;28;20472;-74
2022/11/08 04:16:57;;;;;;;1.50;1.40;;;10.80;99.90;;;;;;5014553;28;20080;-74
2022/11/08 04:22:09;;;;;;;1.27;1.00;;;10.80;99.90;;;;;;5014361;28;20403;-75
2022/11/08 04:24:35;;;;;;;2.45;2.13;;;10.90;99.90;;;;;;5014272;28;20034;-75
2022/11/08 04:27:01;;;;;;;5.18;3.70;;;10.70;99.90;;;;;;5013990;28;20490;-75
2022/11/08 04:29:27;;;;;;;5.05;3.30;;;10.10;99.90;;;;;;5016094;28;20026;-74
2022/11/08 04:31:53;;;;;;;5.93;3.20;;;10.00;99.90;;;;;;5013974;28;20033;-74
2022/11/08 04:34:19;;;;;;;3.55;3.20;;;10.00;99.90;;;;;;5014241;28;20109;-74
2022/11/08 04:36:45;;;;;;;5.53;3.05;;;10.00;99.90;;;;;;5014238;28;20033;-74
2022/11/08 04:39:10;;;;;;;5.70;3.40;;;10.00;99.90;;;;;;5014048;28;20125;-74
2022/11/08 04:41:36;;;;;;;5.32;3.90;;;10.00;99.90;;;;;;5013934;28;20026;-74
2022/11/08 04:44:01;;;;;;;6.00;3.28;;;9.90;99.90;;;;;;4996337;28;20030;-74
2022/11/08 04:46:28;;;;;;;5.53;2.95;;;9.80;99.90;;;;;;5033031;28;20518;-74
2022/11/08 04:48:59;;;;;;;4.15;3.10;;;9.70;99.90;;;;;;5015967;28;20128;-74
2022/11/08 04:51:30;;;;;;;3.88;3.10;;;9.60;99.90;;;;;;5033631;28;20108;-75
2022/11/08 04:53:59;;;;;;;4.63;3.30;;;9.60;99.90;;;;;;5015830;28;20037;-74
2022/11/08 04:56:27;;;;;;;4.88;2.90;;;9.50;99.90;;;;;;5033209;28;20034;-75
2022/11/08 04:58:55;;;;;;;3.60;3.00;;;9.40;99.90;;;;;;5045158;28;20032;-74
2022/11/08 05:01:23;;;;;;;4.75;3.45;;;9.40;99.90;;;;;;5053081;28;20025;-74
2022/11/08 05:03:50;;;;;;;2.90;2.63;;;9.40;99.90;;;;;;5053224;28;20025;-74
2022/11/08 05:06:22;;;;;;;3.10;2.88;;;9.40;99.90;;;;;;5053268;28;20029;-74
2022/11/08 05:08:48;;;;;;;4.65;3.20;;;9.40;99.90;;;;;;5035243;28;20028;-74
2022/11/08 05:11:19;;;;;;;4.22;3.38;;;9.40;99.90;;;;;;5052988;28;20020;-74
2022/11/08 05:13:48;;;;;;;4.63;2.95;;;9.40;99.90;;;;;;5053191;28;20021;-74
2022/11/08 05:16:19;;;;;;;3.78;3.05;;;9.40;99.90;;;;;;5035156;28;20056;-74
2022/11/08 05:18:45;;;;;;;2.78;2.15;;;9.40;99.90;;;;;;5052937;28;20063;-74
2022/11/08 05:23:59;;;;;;;1.90;1.75;;;9.40;99.90;;;;;;5053254;28;20036;-74
2022/11/08 05:26:25;;;;;;;1.50;1.40;;;9.50;99.90;;;;;;5023302;28;20037;-74
2022/11/08 05:28:51;;;;;;;1.73;1.60;;;9.50;99.90;;;;;;5032953;28;20025;-74
2022/11/08 05:31:17;;;;;;;1.60;1.48;;;9.50;99.90;;;;;;5048106;28;20025;-75
2022/11/08 05:33:43;;;;;;;3.03;1.70;;;9.50;99.90;;;;;;5048043;28;20026;-75
2022/11/08 05:36:11;;;;;;;2.00;1.20;;;9.50;99.90;;;;;;5047911;28;20021;-74
2022/11/08 05:38:38;;;;;;;1.58;1.33;;;9.40;99.90;;;;;;5014614;28;20022;-74
2022/11/08 05:41:15;;;;;;;1.50;1.40;;;9.40;99.90;;;;;;5031751;28;20025;-74
2022/11/08 05:43:42;;;;;;;1.33;1.23;;;9.50;99.90;;;;;;5035139;28;20071;-74
2022/11/08 05:46:08;;;;;;;1.67;1.58;;;9.40;99.90;;;;;;5040755;28;20060;-75
2022/11/08 05:48:34;;;;;;;1.58;1.33;;;9.40;99.90;;;;;;5022487;28;20037;-74
2022/11/08 05:51:00;;;;;;;1.60;1.50;;;9.40;99.90;;;;;;5037042;28;20037;-74
2022/11/08 05:53:26;;;;;;;1.40;1.27;;;9.40;99.90;;;;;;5041227;28;20108;-74
2022/11/08 05:56:00;;;;;;;1.73;1.25;;;9.40;99.90;;;;;;5039259;28;20464;-74
2022/11/08 05:58:27;;;;;;;2.67;1.48;;;9.40;99.90;;;;;;5039093;28;20022;-75
2022/11/08 06:01:03;;;;;;;3.22;1.70;;;9.40;99.90;;;;;;5039900;28;20108;-74
2022/11/08 06:03:29;;;;;;;1.75;1.45;;;9.40;99.90;;;;;;5039657;28;20017;-74
2022/11/08 06:05:59;;;;;;;2.22;2.03;;;9.50;99.90;;;;;;5021787;28;20120;-74
2022/11/08 06:08:25;;;;;;;1.80;1.65;;;9.50;99.90;;;;;;5036259;28;20036;-74
2022/11/08 06:10:51;;;;;;;2.15;1.95;;;9.50;99.90;;;;;;5031975;28;20022;-74
2022/11/08 06:13:16;;;;;;;2.00;1.70;;;9.50;99.90;;;;;;5032039;28;20030;-74
2022/11/08 06:15:42;;;;;;;1.58;1.48;;;9.50;99.90;;;;;;5032099;28;20030;-74
2022/11/08 06:18:11;;;;;;;2.13;1.63;;;9.60;99.90;;;;;;5034120;28;20364;-75
2022/11/08 06:20:36;;;;;;;1.65;1.55;;;9.70;99.90;;;;;;5016515;28;20523;-74
2022/11/08 06:23:02;;;;;;;5.40;2.40;;;9.70;99.90;;;;;;5047153;28;20120;-74
2022/11/08 06:25:31;;;;;;;5.55;2.85;;;9.60;99.90;;;;;;5013900;28;20025;-75
2022/11/08 06:27:58;;;;;;;4.05;2.70;;;9.50;99.90;;;;;;5031793;28;20100;-74
2022/11/08 06:30:24;;;;;;;5.68;3.72;;;9.40;99.90;;;;;;5031746;28;20026;-74
2022/11/08 06:32:50;;;;;;;4.95;3.13;;;9.40;99.90;;;;;;5030845;28;20396;-74
2022/11/08 06:35:16;;;;;;;5.88;3.40;;;9.30;99.90;;;;;;5029741;28;20281;-74
2022/11/08 06:37:43;;;;;;;4.80;3.10;;;9.30;99.90;;;;;;5030006;28;20026;-74
2022/11/08 06:40:09;;;;;;;3.55;2.53;;;9.30;99.90;;;;;;5029857;28;20028;-74
2022/11/08 06:42:35;;;;;;;4.85;2.95;;;9.30;99.90;;;;;;5029644;28;20472;-74
2022/11/08 06:45:00;;;;;;;4.85;3.33;;;9.30;99.90;;;;;;5022410;28;20088;-74
2022/11/08 06:47:26;;;;;;;4.18;3.20;;;9.30;99.90;;;;;;5010282;28;20018;-74
2022/11/08 06:49:52;;;;;;;5.97;3.08;;;9.30;99.90;;;;;;5011636;28;20432;-74
2022/11/08 06:52:17;;;;;;;6.68;3.50;;;9.30;99.90;;;;;;4993877;28;20057;-74
2022/11/08 06:54:43;;;;;;;5.05;3.60;;;9.20;99.90;;;;;;5016621;28;20029;-74
2022/11/08 06:57:09;;;;;;;5.00;3.50;;;9.20;99.90;;;;;;5013857;28;20373;-74
2022/11/08 06:59:34;;;;;;;9.30;3.33;;;9.20;99.90;;;;;;4994091;28;20026;-74
2022/11/08 07:02:00;;;;;;;6.95;3.40;;;9.20;99.90;;;;;;5011594;28;20026;-74
2022/11/08 07:04:26;;;;;;;5.85;3.22;;;9.30;99.90;;;;;;5011634;28;20029;-74
2022/11/08 07:06:51;;;;;;;5.45;3.55;;;9.40;99.90;;;;;;5011795;28;20049;-75
2022/11/08 07:09:17;;;;;;;6.30;3.42;;;9.40;99.90;;;;;;5011325;28;20026;-75
2022/11/08 07:11:43;;;;;;;9.52;3.63;;;9.50;99.90;;;;;;5011563;28;20021;-74
2022/11/08 07:14:08;;;;;;;6.50;3.90;;;9.50;99.90;;;;;;5011711;28;20030;-74
2022/11/08 07:16:34;;;;;;;9.52;4.78;;;9.50;99.90;;;;;;5011480;28;20030;-75
2022/11/08 07:19:00;;;;;;;7.18;3.75;;;9.60;99.90;;;;;;5011628;28;20053;-74
2022/11/08 07:21:25;;;;;;;5.80;4.15;;;9.70;99.90;;;;;;5011419;28;20122;-74
2022/11/08 07:23:51;;;;;;;7.65;3.88;;;9.80;99.90;;;;;;5011355;28;20038;-74
2022/11/08 07:26:17;;;;;;;7.65;3.45;;;9.90;99.90;;;;;;4993839;28;20026;-75
2022/11/08 07:28:42;;;;;;;7.82;5.07;;;10.00;99.90;;;;;;5011493;28;20030;-74
2022/11/08 07:31:09;;;;;;;7.82;5.05;;;10.00;99.90;;;;;;5013154;28;20475;-74
2022/11/08 07:33:35;;;;;;;9.70;4.93;;;10.20;99.90;;;;;;4995196;28;20030;-74
2022/11/08 07:36:01;;;;;;;7.88;4.78;;;10.20;99.90;;;;;;5012666;28;20041;-74
2022/11/08 07:38:27;;;;;;;7.00;4.35;;;10.30;99.90;;;;;;4994961;28;20537;-74
2022/11/08 07:41:02;;;;;;;7.03;4.40;;;10.30;99.90;;;;;;5012176;28;20033;-75
2022/11/08 07:43:28;;;;;;;7.30;4.30;;;10.40;99.90;;;;;;4994763;28;20118;-74
2022/11/08 07:45:57;;;;;;;5.38;3.78;;;10.40;99.90;;;;;;5012329;28;20407;-74
2022/11/08 07:48:23;;;;;;;5.47;3.58;;;10.50;99.90;;;;;;5012435;28;20029;-74
2022/11/08 07:50:49;;;;;;;7.88;4.05;;;10.50;99.90;;;;;;4994595;28;20022;-74
2022/11/08 07:53:15;;;;;;;6.93;4.72;;;10.60;99.90;;;;;;5012245;28;20030;-74
2022/11/08 07:55:41;;;;;;;8.90;4.38;;;10.60;99.90;;;;;;5012290;28;20680;-74
2022/11/08 07:58:09;;;;;;;9.45;4.53;;;10.70;99.90;;;;;;5012211;28;20022;-74
2022/11/08 08:00:39;;;;;;;7.40;4.35;;;10.80;99.90;;;;;;5012158;28;20026;-74
2022/11/08 08:03:06;;;;;;;6.97;4.30;;;10.80;99.90;;;;;;5027429;28;20022;-74
2022/11/08 08:05:35;;;;;;;5.78;4.35;;;10.90;99.90;;;;;;5014990;28;20030;-75
2022/11/08 08:08:01;;;;;;;8.07;4.40;;;10.90;99.90;;;;;;5016591;28;20104;-74
2022/11/08 08:10:28;;;;;;;5.30;4.50;;;11.00;99.90;;;;;;5015980;28;20026;-74
2022/11/08 08:12:55;;;;;;;7.13;4.18;;;11.00;99.90;;;;;;4998290;28;20072;-74
2022/11/08 08:15:21;;;;;;;6.50;4.53;;;11.10;99.90;;;;;;4997900;28;20365;-75
2022/11/08 08:17:47;;;;;;;7.28;4.68;;;11.20;99.90;;;;;;5015640;28;20112;-74
2022/11/08 08:20:12;;;;;;;5.03;4.07;;;11.20;99.90;;;;;;5023231;28;20096;-74
2022/11/08 08:22:46;;;;;;;6.28;4.18;;;11.30;99.90;;;;;;5025070;28;20059;-74
2022/11/08 08:25:13;;;;;;;6.78;4.22;;;11.30;99.90;;;;;;5021586;28;20029;-74
2022/11/08 08:27:52;;;;;;;7.60;4.60;;;11.40;99.90;;;;;;5024795;28;20018;-75
2022/11/08 08:30:18;;;;;;;9.45;4.32;;;11.50;99.90;;;;;;5023326;28;20056;-75
2022/11/08 08:32:46;;;;;;;6.00;4.25;;;11.50;99.90;;;;;;5023087;28;20487;-75
2022/11/08 08:35:12;;;;;;;6.50;4.28;;;11.60;99.90;;;;;;5020333;28;20037;-75
2022/11/08 08:37:38;;;;;;;6.72;4.15;;;11.60;99.90;;;;;;5015322;28;20072;-74
2022/11/08 08:40:04;;;;;;;8.70;4.47;;;11.80;99.90;;;;;;5014980;28;20109;-75
2022/11/08 08:42:32;;;;;;;6.68;4.40;;;11.80;99.90;;;;;;5015197;28;20515;-74
2022/11/08 08:44:58;;;;;;;6.65;4.60;;;11.90;99.90;;;;;;5014917;28;20052;-75
2022/11/08 08:47:27;;;;;;;9.23;4.65;;;11.90;99.90;;;;;;5015016;28;20022;-75
2022/11/08 08:49:53;;;;;;;4.45;3.67;;;11.90;99.90;;;;;;5008740;28;20026;-75
2022/11/08 08:52:21;;;;;;;8.32;4.07;;;11.90;99.90;;;;;;5022047;28;20072;-74
2022/11/08 08:54:47;;;;;;;6.28;4.05;;;12.00;99.90;;;;;;5019650;28;20029;-74
2022/11/08 08:57:13;;;;;;;6.55;4.30;;;11.90;99.90;;;;;;5015130;28;20569;-74
2022/11/08 08:59:38;;;;;;;6.90;3.55;;;12.00;99.90;;;;;;5027906;28;20097;-74
2022/11/08 09:02:04;;;;;;;3.92;3.50;;;12.00;99.90;;;;;;5017155;28;20383;-75
2022/11/08 09:04:30;;;;;;;5.85;4.03;;;11.90;99.90;;;;;;5020168;28;20490;-74
2022/11/08 09:06:55;;;;;;;4.25;3.63;;;11.90;99.90;;;;;;5021528;28;20025;-74
2022/11/08 09:09:21;;;;;;;4.90;3.78;;;12.00;99.90;;;;;;5023025;28;20546;-75
2022/11/08 09:11:47;;;;;;;4.45;3.58;;;12.00;99.90;;;;;;5028275;28;20022;-73
2022/11/08 09:14:13;;;;;;;5.07;3.80;;;12.00;99.90;;;;;;5016421;28;20025;-75
2022/11/08 09:16:39;;;;;;;5.53;3.95;;;12.00;99.90;;;;;;5011103;28;20669;-73
2022/11/08 09:19:04;;;;;;;4.47;3.33;;;12.00;99.90;;;;;;5010600;28;20026;-73
2022/11/08 09:21:30;;;;;;;7.28;4.20;;;12.10;99.90;;;;;;5012810;28;20421;-73
2022/11/08 09:23:56;;;;;;;7.53;4.55;;;12.10;99.90;;;;;;4996022;28;20364;-73
2022/11/08 09:26:21;;;;;;;6.07;4.32;;;12.10;99.90;;;;;;5024935;28;20483;-74
2022/11/08 09:28:47;;;;;;;5.38;4.18;;;12.10;99.90;;;;;;5031238;28;20030;-73
2022/11/08 09:31:13;;;;;;;6.85;4.75;;;12.20;99.90;;;;;;5009166;28;20099;-74
2022/11/08 09:33:39;;;;;;;8.68;4.40;;;12.20;99.90;;;;;;5014512;28;20022;-74
2022/11/08 09:36:07;;;;;;;8.35;4.20;;;12.20;99.90;;;;;;5002409;28;20120;-73
2022/11/08 09:38:33;;;;;;;6.43;4.55;;;12.20;99.90;;;;;;5018916;28;20018;-74
2022/11/08 09:41:23;;;;;;;7.38;5.00;;;12.30;99.90;;;;;;5003558;28;20091;-74
2022/11/08 09:44:29;;;;;;;5.57;4.10;;;12.30;99.90;;;;;;5001639;28;20025;-74
2022/11/08 09:46:57;;;;;;;5.47;4.50;;;12.40;99.90;;;;;;5020058;28;20042;-74
2022/11/08 09:49:43;;;;;;;7.45;4.65;;;12.40;99.90;;;;;;5035509;28;20466;-74
2022/11/08 09:52:19;;;;;;;6.43;4.82;;;12.50;99.90;;;;;;5053484;28;20041;-74
2022/11/08 09:54:46;;;;;;;8.25;4.53;;;12.60;99.90;;;;;;5053263;28;20028;-74
2022/11/08 09:57:25;;;;;;;13.27;5.43;;;12.70;99.90;;;;;;5035084;28;20548;-74
2022/11/08 10:00:03;;;;;;;8.93;4.90;;;12.80;99.90;;;;;;5033413;28;20014;-74
2022/11/08 10:02:30;;;;;;;5.45;4.75;;;13.00;99.90;;;;;;5033421;28;20071;-74
2022/11/08 10:05:01;;;;;;;7.68;4.68;;;13.10;99.90;;;;;;5032850;28;20028;-74
2022/11/08 10:07:51;;;;;;;6.82;4.72;;;13.10;99.90;;;;;;5032492;28;20442;-74
2022/11/08 10:10:38;;;;;;;7.20;4.97;;;13.20;99.90;;;;;;5032040;28;20617;-73
2022/11/08 10:13:09;;;;;;;10.48;4.90;;;13.20;99.90;;;;;;5014496;28;20034;-79
2022/11/08 10:15:45;;;;;;;8.02;5.10;;;13.30;99.90;;;;;;5030907;28;20052;-79
2022/11/08 10:18:20;;;;;;;8.80;5.60;;;13.40;99.90;;;;;;5030987;28;20029;-79
2022/11/08 10:21:27;;;;;;;12.27;6.30;;;13.50;99.90;;;;;;5031003;28;20392;-79
2022/11/08 10:24:10;;;;;;;17.85;8.07;;;13.50;99.90;;;;;;4972730;28;20277;-79
2022/11/08 10:26:46;;;;;;;34.10;17.70;;;13.60;99.90;;;;;;4972292;28;20034;-79
2022/11/08 10:29:20;;;;;;;26.58;13.57;;;13.70;99.90;;;;;;5017314;28;20042;-79
2022/11/08 10:31:56;;;;;;;21.33;11.48;;;13.80;99.90;;;;;;5032289;28;20033;-78
2022/11/08 10:34:26;;;;;;;20.88;9.27;;;13.80;99.90;;;;;;5032227;28;20026;-79
2022/11/08 10:36:58;;;;;;;11.23;7.20;;;13.90;99.90;;;;;;5032247;28;20430;-79
2022/11/08 10:39:26;;;;;;;26.08;14.32;;;14.00;99.90;;;;;;5032187;28;20025;-79
2022/11/08 10:41:59;;;;;;;18.65;10.05;;;14.00;99.90;;;;;;5032098;28;20502;-79
2022/11/08 10:44:27;;;;;;;14.45;7.65;;;14.10;99.90;;;;;;5018421;28;20017;-79
2022/11/08 10:46:55;;;;;;;10.20;6.20;;;14.10;99.90;;;;;;5033972;28;20032;-79
2022/11/08 10:49:25;;;;;;;9.77;5.40;;;14.10;99.90;;;;;;5051684;28;20028;-79
2022/11/08 10:52:12;;;;;;;11.13;5.63;;;14.20;99.90;;;;;;5051712;28;20078;-79
2022/11/08 10:54:45;;;;;;;10.68;4.93;;;14.30;99.90;;;;;;5051615;28;20025;-78
2022/11/08 10:57:27;;;;;;;9.32;5.13;;;14.30;99.90;;;;;;5033918;28;20620;-79
2022/11/08 10:59:54;;;;;;;7.70;4.97;;;14.40;99.90;;;;;;5033558;28;20606;-78
2022/11/08 11:02:34;;;;;;;9.15;4.88;;;14.50;99.90;;;;;;5051778;28;20021;-78
2022/11/08 11:05:36;;;;;;;9.63;5.03;;;14.50;99.90;;;;;;5051597;28;20467;-78
2022/11/08 11:08:04;;;;;;;9.35;4.65;;;14.50;99.90;;;;;;5009683;28;20037;-79
2022/11/08 11:10:38;;;;;;;7.85;4.07;;;14.40;99.90;;;;;;5051514;28;20017;-79
2022/11/08 11:13:26;;;;;;;8.02;4.65;;;14.40;99.90;;;;;;5051534;28;20033;-79
2022/11/08 11:15:57;;;;;;;8.98;3.95;;;14.40;99.90;;;;;;5051485;28;20035;-79
2022/11/08 11:18:46;;;;;;;7.80;3.97;;;14.50;99.90;;;;;;5051690;28;20100;-79
2022/11/08 11:21:22;;;;;;;9.52;4.78;;;14.40;99.90;;;;;;5051838;28;20291;-79
2022/11/08 11:23:48;;;;;;;10.45;5.13;;;14.50;99.90;;;;;;5033712;28;20076;-79
2022/11/08 11:26:37;;;;;;;7.72;4.75;;;14.60;99.90;;;;;;5033809;28;20470;-79
2022/11/08 11:29:03;;;;;;;9.57;5.32;;;14.70;99.90;;;;;;5051419;28;20113;-78
2022/11/08 11:31:37;;;;;;;8.48;5.07;;;14.70;99.90;;;;;;5051438;28;20112;-79
2022/11/08 11:34:56;;;;;;;15.55;4.70;;;14.70;99.90;;;;;;5051697;28;20394;-79
2022/11/08 11:37:27;;;;;;;7.10;4.95;;;14.70;99.90;;;;;;5047431;28;20118;-79
2022/11/08 11:40:31;;;;;;;9.55;4.75;;;14.80;99.90;;;;;;5035496;28;20025;-79
2022/11/08 11:43:03;;;;;;;10.05;4.90;;;14.80;99.90;;;;;;5037510;28;20037;-79
2022/11/08 11:45:41;;;;;;;10.10;5.35;;;14.80;99.90;;;;;;5055062;28;20152;-78
2022/11/08 11:48:15;;;;;;;8.73;4.85;;;14.90;99.90;;;;;;5055300;28;20025;-78
2022/11/08 11:50:45;;;;;;;9.77;5.50;;;15.00;99.90;;;;;;5055257;28;20513;-78
2022/11/08 11:53:32;;;;;;;8.48;4.93;;;15.00;99.90;;;;;;5037351;28;20079;-78
2022/11/08 11:56:23;;;;;;;10.75;5.30;;;15.10;99.90;;;;;;5029100;28;20072;-78
2022/11/08 11:59:05;;;;;;;16.52;5.80;;;15.00;99.90;;;;;;5034916;28;20022;-78
2022/11/08 12:01:52;;;;;;;13.75;5.10;;;15.10;99.90;;;;;;5035064;28;20083;-79
2022/11/08 12:04:21;;;;;;;13.80;5.15;;;15.10;99.90;;;;;;5035032;28;20475;-78
2022/11/08 12:07:11;;;;;;;10.57;5.20;;;15.10;99.90;;;;;;5035165;28;20025;-78
2022/11/08 12:10:10;;;;;;;9.23;5.07;;;15.10;99.90;;;;;;5034740;28;20029;-78
2022/11/08 12:13:00;;;;;;;8.63;4.57;;;15.20;99.90;;;;;;5035730;28;20030;-78
2022/11/08 12:15:32;;;;;;;7.18;3.35;;;15.20;99.90;;;;;;5030765;28;20034;-78
2022/11/08 12:18:18;;;;;;;;;;;15.20;99.90;;;;;;5015532;28;20563;-78
2022/11/08 12:20:53;;;;;;;8.23;3.78;;;15.20;99.90;;;;;;4998177;28;19910;-78
2022/11/08 12:23:46;;;;;;;7.82;3.40;;;15.30;99.90;;;;;;4998287;28;20037;-78
2022/11/08 12:26:27;;;;;;;7.65;2.35;;;15.30;99.90;;;;;;5050615;28;20033;-78
2022/11/08 12:29:17;;;;;;;2.50;1.95;;;15.40;99.90;;;;;;5055012;28;20025;-78
2022/11/08 12:32:10;;;;;;;2.90;1.77;;;15.40;99.90;;;;;;5054619;28;20494;-78
2022/11/08 12:35:15;;;;;;;1.92;1.50;;;15.40;99.90;;;;;;5054381;28;20390;-78
2022/11/08 12:37:59;;;;;;;2.78;1.40;;;15.40;99.90;;;;;;5054625;28;20027;-78
2022/11/08 12:41:14;;;;;;;1.65;1.45;;;15.40;99.90;;;;;;5054167;28;20104;-78
2022/11/08 12:43:54;;;;;;;1.65;1.50;;;15.30;99.90;;;;;;5036541;28;20048;-78
2022/11/08 12:46:20;;;;;;;5.80;1.52;;;15.30;99.90;;;;;;5054015;28;20055;-78
2022/11/08 12:48:49;;;;;;;1.75;1.27;;;15.30;99.90;;;;;;5054059;28;20029;-78
2022/11/08 12:51:51;;;;;;;1.95;1.40;;;15.30;99.90;;;;;;5051897;28;20422;-79
2022/11/08 12:54:35;;;;;;;3.40;1.70;;;15.30;99.90;;;;;;4973111;28;20035;-78
2022/11/08 12:57:08;;;;;;;2.30;1.20;;;15.30;99.90;;;;;;5031397;28;20034;-78
2022/11/08 12:59:58;;;;;;;1.50;1.40;;;15.30;99.90;;;;;;5033873;28;20033;-78
2022/11/08 13:02:27;;;;;;;3.20;1.33;;;15.30;99.90;;;;;;5012307;28;20029;-78
2022/11/08 13:04:56;;;;;;;2.88;1.20;;;15.20;99.90;;;;;;5034012;28;20036;-78
2022/11/08 13:07:37;;;;;;;1.75;1.65;;;15.20;99.90;;;;;;5033814;28;20076;-78
2022/11/08 13:10:22;;;;;;;2.38;1.95;;;15.20;99.90;;;;;;5049039;28;20038;-79
2022/11/08 13:13:26;;;;;;;3.75;1.65;;;15.20;99.90;;;;;;5033891;28;20026;-78
2022/11/08 13:16:18;;;;;;;3.38;2.00;;;15.10;99.90;;;;;;4972763;28;20062;-76
2022/11/08 13:18:58;;;;;;;1.92;1.55;;;15.10;99.90;;;;;;4972283;28;20106;-78
2022/11/08 13:21:26;;;;;;;3.38;2.88;;;15.10;99.90;;;;;;5017669;28;20041;-78
2022/11/08 13:24:01;;;;;;;1.70;1.60;;;15.00;99.90;;;;;;5033812;28;20036;-78
2022/11/08 13:26:40;;;;;;;2.53;1.52;;;15.00;99.90;;;;;;5016027;28;20033;-78